Terminal Aerodrome Forecast
Issued by NWS Shreveport, LA

Home | Current Version | Previous Version | Text Only | Print | Product List | Glossary On
Versions: 1 2 3 4 5 6 7 8 9 10 11 12 13 14 15 16 17
000
FTUS44 KSHV 201700
TAFELD
TAF
KELD 201732Z 2018/2118 06005KT P6SM SCT011
     FM202100 05005KT P6SM BKN017
     FM210000 05005KT P6SM SCT020
     FM210500 08004KT P6SM BKN050=

USA.gov is the U.S. government's official web portal to all federal, state and local government web resources and services.